createdAt,value
2022-12-23T00:01:55.778Z,58.93
2022-12-23T00:04:23.170Z,63.97
2022-12-23T00:06:50.509Z,65.67
2022-12-23T00:09:17.775Z,64.63
2022-12-23T00:11:45.011Z,66.10
2022-12-23T00:14:20.387Z,63.60
2022-12-23T00:16:49.807Z,62.13
2022-12-23T00:19:17.148Z,65.33
2022-12-23T00:21:44.520Z,63.63
2022-12-23T00:24:11.895Z,67.93
2022-12-23T00:26:39.237Z,68.53
2022-12-23T00:29:06.583Z,77.87
2022-12-23T00:31:35.321Z,64.83
2022-12-23T00:34:02.678Z,70.00
2022-12-23T00:36:30.837Z,67.73
2022-12-23T00:38:59.703Z,68.23
2022-12-23T00:41:27.046Z,66.67
2022-12-23T00:43:54.299Z,67.30
2022-12-23T00:46:21.741Z,70.30
2022-12-23T00:48:50.445Z,72.27
2022-12-23T00:51:17.748Z,75.57
2022-12-23T00:53:45.032Z,74.70
2022-12-23T00:56:12.335Z,71.17
2022-12-23T00:58:39.534Z,76.20
2022-12-23T01:01:06.850Z,75.47
2022-12-23T01:03:34.216Z,71.30
2022-12-23T01:06:03.283Z,73.90
2022-12-23T01:08:30.633Z,73.10
2022-12-23T01:11:02.491Z,73.37
2022-12-23T01:13:29.944Z,70.20
2022-12-23T01:16:00.459Z,70.53
2022-12-23T01:18:27.778Z,77.83
2022-12-23T01:20:55.097Z,67.97
2022-12-23T01:23:23.848Z,65.73
2022-12-23T01:25:56.647Z,74.03
2022-12-23T01:28:24.133Z,70.43
2022-12-23T01:30:51.463Z,69.40
2022-12-23T01:33:18.813Z,69.67
2022-12-23T01:35:46.435Z,75.27
2022-12-23T01:38:13.756Z,71.07
2022-12-23T01:40:44.522Z,67.30
2022-12-23T01:43:15.699Z,68.13
2022-12-23T01:45:43.440Z,68.90
2022-12-23T01:48:14.363Z,75.63
2022-12-23T01:50:46.515Z,62.90
2022-12-23T01:53:19.301Z,64.33
2022-12-23T01:55:50.860Z,65.60
2022-12-23T01:58:22.981Z,61.90
2022-12-23T02:00:50.465Z,67.03
2022-12-23T02:03:17.778Z,67.00
2022-12-23T02:05:46.071Z,69.80
2022-12-23T02:08:15.043Z,73.50
2022-12-23T02:11:13.451Z,70.97
2022-12-23T02:13:51.105Z,69.80
2022-12-23T02:16:18.635Z,72.00
2022-12-23T02:19:05.190Z,73.37
2022-12-23T02:21:41.903Z,71.53
2022-12-23T02:24:43.833Z,69.67
2022-12-23T02:27:23.180Z,68.37
2022-12-23T02:30:24.990Z,68.80
2022-12-23T02:33:34.206Z,73.77
2022-12-23T02:36:15.839Z,76.30
2022-12-23T02:38:53.817Z,76.00
2022-12-23T02:41:25.821Z,67.40
2022-12-23T02:43:59.829Z,84.43
2022-12-23T02:46:33.248Z,68.30
2022-12-23T02:49:06.483Z,82.30
2022-12-23T02:51:37.975Z,64.27
2022-12-23T02:54:11.056Z,72.07
2022-12-23T02:56:42.064Z,68.67
2022-12-23T02:59:13.402Z,68.60
2022-12-23T03:01:42.931Z,71.87
2022-12-23T03:04:10.329Z,69.57
2022-12-23T03:06:41.291Z,75.00
2022-12-23T03:09:08.979Z,71.07
2022-12-23T03:11:48.515Z,65.83
2022-12-23T03:14:34.189Z,75.50
2022-12-23T03:17:14.986Z,76.37
2022-12-23T03:19:50.855Z,71.27
2022-12-23T03:22:24.638Z,70.87
2022-12-23T03:24:57.396Z,68.27
2022-12-23T03:27:28.469Z,71.77
2022-12-23T03:30:00.952Z,59.07
2022-12-23T03:32:32.446Z,79.27
2022-12-23T03:35:02.359Z,66.83
2022-12-23T03:37:33.889Z,69.23
2022-12-23T03:40:06.906Z,74.27
2022-12-23T03:42:37.220Z,63.43
2022-12-23T03:45:37.488Z,59.67
2022-12-23T03:48:03.196Z,58.80
2022-12-23T03:50:33.952Z,63.53
2022-12-23T03:53:07.518Z,62.27
2022-12-23T03:55:39.929Z,63.83
2022-12-23T03:58:14.298Z,63.33
2022-12-23T04:00:47.993Z,61.57
2022-12-23T04:03:21.881Z,68.57
2022-12-23T04:05:53.962Z,69.23
2022-12-23T04:08:30.002Z,66.63
2022-12-23T04:10:58.137Z,62.70
2022-12-23T04:13:26.883Z,58.17
2022-12-23T04:15:54.608Z,54.97
2022-12-23T04:18:21.886Z,59.80
2022-12-23T04:20:49.279Z,69.90
2022-12-23T04:23:16.544Z,76.13
2022-12-23T04:25:45.431Z,65.47
2022-12-23T04:28:12.620Z,65.07
2022-12-23T04:30:39.941Z,63.37
2022-12-23T04:33:07.226Z,72.13
2022-12-23T04:35:34.571Z,69.70
2022-12-23T04:38:01.844Z,65.40
2022-12-23T04:40:29.174Z,68.60
2022-12-23T04:42:57.773Z,74.27
2022-12-23T04:45:25.161Z,68.67
2022-12-23T04:47:52.352Z,66.33
2022-12-23T04:50:19.670Z,69.23
2022-12-23T04:52:46.998Z,72.73
2022-12-23T04:55:14.300Z,84.30
2022-12-23T04:57:41.504Z,83.63
2022-12-23T05:00:11.432Z,78.67
2022-12-23T05:02:38.775Z,96.77
2022-12-23T05:05:06.565Z,86.00
2022-12-23T05:07:33.846Z,91.00
2022-12-23T05:10:01.143Z,89.80
2022-12-23T05:12:28.762Z,69.00
2022-12-23T05:14:56.124Z,89.20
2022-12-23T05:17:24.765Z,87.17
2022-12-23T05:19:52.121Z,93.20
2022-12-23T05:22:19.474Z,99.90
2022-12-23T05:24:47.040Z,103.53
2022-12-23T05:27:14.285Z,99.07
2022-12-23T05:29:41.665Z,94.57
2022-12-23T05:32:09.055Z,107.27
2022-12-23T05:34:37.764Z,98.07
2022-12-23T05:37:05.061Z,103.40
2022-12-23T05:39:32.309Z,103.70
2022-12-23T05:41:59.500Z,100.00
2022-12-23T05:44:26.720Z,113.30
2022-12-23T05:46:53.970Z,112.17
2022-12-23T05:49:21.288Z,120.17
2022-12-23T05:51:49.845Z,124.30
2022-12-23T05:54:17.135Z,106.07
2022-12-23T05:56:44.314Z,108.20
2022-12-23T05:59:11.669Z,106.63
2022-12-23T06:01:38.946Z,118.10
2022-12-23T06:04:06.341Z,114.50
2022-12-23T06:06:33.716Z,126.97
2022-12-23T06:09:02.537Z,127.70
2022-12-23T06:11:29.905Z,121.23
2022-12-23T06:13:57.207Z,113.10
2022-12-23T06:16:24.423Z,145.37
2022-12-23T06:18:54.689Z,150.70
2022-12-23T06:21:22.258Z,165.73
2022-12-23T06:23:49.530Z,174.40
2022-12-23T06:26:18.097Z,221.87
2022-12-23T06:28:45.492Z,177.37
2022-12-23T06:31:12.871Z,159.27
2022-12-23T06:33:40.176Z,168.73
2022-12-23T06:36:08.513Z,230.43
2022-12-23T06:38:35.786Z,209.43
2022-12-23T06:41:03.202Z,217.33
2022-12-23T06:43:31.867Z,277.53
2022-12-23T06:45:59.162Z,288.63
2022-12-23T06:48:26.501Z,312.97
2022-12-23T06:50:53.916Z,350.00
2022-12-23T06:53:21.202Z,240.57
2022-12-23T06:55:48.407Z,290.87
2022-12-23T06:58:15.782Z,301.03
2022-12-23T07:00:44.356Z,282.97
2022-12-23T07:03:11.650Z,397.10
2022-12-23T07:05:39.028Z,305.83
2022-12-23T07:08:06.368Z,301.23
2022-12-23T07:10:34.095Z,293.20
2022-12-23T07:13:01.471Z,333.03
2022-12-23T07:15:28.634Z,280.23
2022-12-23T07:17:57.312Z,226.00
2022-12-23T07:20:24.566Z,296.53
2022-12-23T07:22:54.033Z,236.90
2022-12-23T07:25:21.300Z,243.90
2022-12-23T07:27:48.696Z,393.30
2022-12-23T07:30:16.185Z,225.03
2022-12-23T07:32:43.375Z,276.47
2022-12-23T07:35:11.941Z,304.50
2022-12-23T07:37:39.170Z,347.00
2022-12-23T07:40:08.936Z,199.60
2022-12-23T07:42:46.309Z,217.07
2022-12-23T07:45:14.422Z,174.07
2022-12-23T07:47:41.947Z,202.03
2022-12-23T07:50:09.845Z,136.80
2022-12-23T07:52:38.872Z,161.97
2022-12-23T07:55:06.730Z,127.60
2022-12-23T07:57:33.879Z,123.80
2022-12-23T08:00:01.068Z,129.07
2022-12-23T08:02:28.378Z,122.37
2022-12-23T08:04:55.847Z,125.43
2022-12-23T08:07:23.066Z,118.93
2022-12-23T08:09:51.781Z,110.43
2022-12-23T08:12:18.995Z,106.17
2022-12-23T08:14:46.429Z,120.70
2022-12-23T08:17:13.943Z,124.43
2022-12-23T08:19:41.237Z,113.30
2022-12-23T08:22:08.430Z,113.47
2022-12-23T08:24:35.790Z,122.47
2022-12-23T08:27:04.355Z,124.83
2022-12-23T08:29:36.272Z,114.13
2022-12-23T08:32:03.981Z,96.57
2022-12-23T08:34:31.197Z,106.23
2022-12-23T08:36:58.443Z,104.77
2022-12-23T08:39:25.698Z,117.60
2022-12-23T08:41:53.081Z,103.50
2022-12-23T08:44:22.082Z,114.23
2022-12-23T08:46:49.550Z,108.90
2022-12-23T08:49:16.777Z,106.70
2022-12-23T08:51:44.015Z,99.87
2022-12-23T08:54:11.205Z,95.90
2022-12-23T08:56:41.710Z,91.93
2022-12-23T08:59:18.691Z,115.43
2022-12-23T09:01:48.393Z,92.13
2022-12-23T09:04:15.964Z,97.73
2022-12-23T09:06:43.769Z,91.50
2022-12-23T09:09:12.440Z,88.43
2022-12-23T09:11:40.059Z,87.63
2022-12-23T09:14:07.587Z,84.83
2022-12-23T09:16:34.955Z,95.77
2022-12-23T09:19:04.204Z,85.40
2022-12-23T09:21:31.708Z,86.33
2022-12-23T09:23:58.881Z,78.07
2022-12-23T09:26:28.469Z,78.77
2022-12-23T09:28:56.274Z,76.83
2022-12-23T09:31:26.712Z,77.77
2022-12-23T09:33:56.776Z,80.87
2022-12-23T09:36:25.336Z,74.73
2022-12-23T09:38:56.222Z,83.90
2022-12-23T09:41:38.280Z,71.47
2022-12-23T09:44:23.248Z,66.60
2022-12-23T09:46:54.760Z,78.33
2022-12-23T09:49:23.861Z,74.47
2022-12-23T09:51:57.915Z,74.93
2022-12-23T09:54:27.540Z,61.97
2022-12-23T09:56:58.175Z,74.60
2022-12-23T10:00:00.952Z,72.03
2022-12-23T10:02:38.014Z,64.37
2022-12-23T10:05:15.109Z,65.23
2022-12-23T10:07:49.286Z,64.37
2022-12-23T10:10:20.099Z,68.47
2022-12-23T10:12:51.484Z,68.47
2022-12-23T10:15:22.372Z,61.67
2022-12-23T10:17:54.440Z,58.67
2022-12-23T10:20:37.384Z,65.37
2022-12-23T10:23:13.633Z,57.33
2022-12-23T10:25:48.966Z,57.90
2022-12-23T10:28:16.208Z,57.80
2022-12-23T10:31:11.121Z,49.37
2022-12-23T10:33:46.775Z,53.13
2022-12-23T10:36:19.751Z,51.13
2022-12-23T10:38:59.077Z,57.53
2022-12-23T10:41:38.929Z,49.53
2022-12-23T10:44:31.358Z,49.60
2022-12-23T10:47:13.457Z,54.43
2022-12-23T10:49:57.989Z,45.17
2022-12-23T10:52:29.763Z,48.03
2022-12-23T10:54:58.450Z,44.00
2022-12-23T10:57:25.667Z,46.20
2022-12-23T10:59:53.086Z,51.43
2022-12-23T11:02:45.734Z,47.07
2022-12-23T11:05:16.915Z,42.00
2022-12-23T11:07:46.397Z,44.20
2022-12-23T11:10:18.285Z,44.30
2022-12-23T11:12:47.386Z,38.00
2022-12-23T11:15:34.415Z,40.20
2022-12-23T11:18:05.218Z,43.17
2022-12-23T11:20:33.123Z,41.23
2022-12-23T11:23:02.558Z,43.33
2022-12-23T11:25:35.418Z,39.90
2022-12-23T11:28:11.717Z,37.47
2022-12-23T11:30:55.601Z,37.40
2022-12-23T11:33:26.044Z,35.23
2022-12-23T11:36:01.368Z,37.93
2022-12-23T11:38:29.045Z,35.57
2022-12-23T11:40:58.073Z,35.47
2022-12-23T11:43:27.178Z,30.67
2022-12-23T11:46:24.099Z,32.70
2022-12-23T11:49:05.522Z,28.47
2022-12-23T11:51:32.859Z,36.93
2022-12-23T11:54:01.734Z,28.43
2022-12-23T11:56:35.848Z,28.77
2022-12-23T11:59:07.351Z,32.37
2022-12-23T12:01:36.101Z,34.53
2022-12-23T12:04:07.650Z,34.20
2022-12-23T12:06:36.233Z,34.57
2022-12-23T12:09:05.868Z,30.27
2022-12-23T12:11:39.208Z,33.17
2022-12-23T12:14:08.403Z,38.30
2022-12-23T12:16:48.438Z,32.67
2022-12-23T12:19:22.508Z,38.67
2022-12-23T12:21:51.651Z,35.63
2022-12-23T12:24:24.891Z,44.43
2022-12-23T12:26:58.091Z,40.67
2022-12-23T12:29:30.523Z,38.47
2022-12-23T12:32:00.153Z,47.97
2022-12-23T12:34:41.397Z,43.60
2022-12-23T12:37:20.171Z,45.83
2022-12-23T12:39:53.296Z,38.37
2022-12-23T12:42:28.976Z,39.80
2022-12-23T12:45:04.897Z,38.10
2022-12-23T12:47:53.222Z,35.87
2022-12-23T12:50:25.733Z,34.77
2022-12-23T12:52:56.628Z,44.27
2022-12-23T12:55:28.521Z,36.23
2022-12-23T12:57:57.376Z,41.87
2022-12-23T13:00:25.278Z,36.27
2022-12-23T13:03:14.190Z,36.77
2022-12-23T13:05:54.589Z,35.40
2022-12-23T13:08:51.120Z,40.73
2022-12-23T13:11:26.520Z,37.60
2022-12-23T13:14:04.542Z,35.70
2022-12-23T13:16:44.248Z,45.13
2022-12-23T13:19:23.212Z,34.57
2022-12-23T13:21:55.083Z,34.17
2022-12-23T13:24:28.183Z,36.33
2022-12-23T13:27:05.069Z,39.00
2022-12-23T13:29:54.564Z,41.43
2022-12-23T13:32:37.944Z,34.97
2022-12-23T13:35:19.379Z,36.07
2022-12-23T13:37:54.109Z,35.90
2022-12-23T13:40:35.481Z,33.90
2022-12-23T13:43:09.089Z,34.83
2022-12-23T13:45:39.943Z,32.90
2022-12-23T13:48:27.650Z,37.57
2022-12-23T13:51:02.235Z,31.47
2022-12-23T13:53:44.771Z,35.30
2022-12-23T13:56:21.442Z,32.47
2022-12-23T13:58:50.300Z,39.87
2022-12-23T14:01:33.297Z,34.30
2022-12-23T14:04:33.738Z,36.57
2022-12-23T14:07:04.845Z,32.30
2022-12-23T14:09:35.669Z,34.80
2022-12-23T14:12:17.895Z,37.23
2022-12-23T14:14:57.724Z,34.03
2022-12-23T14:17:35.244Z,39.70
2022-12-23T14:20:17.663Z,35.83
2022-12-23T14:22:59.539Z,39.90
2022-12-23T14:25:46.631Z,35.87
2022-12-23T14:28:28.003Z,41.23
2022-12-23T14:30:56.305Z,39.87
2022-12-23T14:33:27.079Z,40.33
2022-12-23T14:35:57.078Z,37.07
2022-12-23T14:38:29.759Z,37.57
2022-12-23T14:41:25.195Z,38.23
2022-12-23T14:43:58.793Z,35.53
2022-12-23T14:47:01.275Z,37.93
2022-12-23T14:49:47.826Z,38.57
2022-12-23T14:52:47.999Z,40.10
2022-12-23T14:55:55.062Z,37.60
2022-12-23T14:59:03.621Z,35.43
2022-12-23T15:01:36.781Z,38.03
2022-12-23T15:04:18.455Z,45.17
2022-12-23T15:06:49.350Z,37.80
2022-12-23T15:09:24.612Z,51.07
2022-12-23T15:11:53.310Z,37.47
2022-12-23T15:14:30.240Z,41.83
2022-12-23T15:16:57.735Z,41.73
2022-12-23T15:19:26.724Z,37.73
2022-12-23T15:22:17.323Z,39.93
2022-12-23T15:24:48.333Z,36.57
2022-12-23T15:27:27.402Z,37.80
2022-12-23T15:29:55.666Z,46.53
2022-12-23T15:32:24.872Z,41.33
2022-12-23T15:34:54.574Z,40.10
2022-12-23T15:37:27.561Z,40.13
2022-12-23T15:40:04.553Z,42.30
2022-12-23T15:42:33.759Z,39.07
2022-12-23T15:45:14.074Z,47.27
2022-12-23T15:47:41.412Z,43.47
2022-12-23T15:50:13.200Z,41.50
2022-12-23T15:52:44.500Z,43.10
2022-12-23T15:55:14.212Z,45.53
2022-12-23T15:57:49.557Z,43.53
2022-12-23T16:00:19.533Z,45.30
2022-12-23T16:03:06.479Z,42.03
2022-12-23T16:05:36.847Z,42.57
2022-12-23T16:08:28.531Z,41.63
2022-12-23T16:11:05.691Z,44.97
2022-12-23T16:13:33.576Z,39.43
2022-12-23T16:16:29.531Z,45.40
2022-12-23T16:18:57.046Z,41.10
2022-12-23T16:21:28.356Z,41.23
2022-12-23T16:23:58.488Z,38.50
2022-12-23T16:26:26.186Z,44.47
2022-12-23T16:28:57.747Z,42.33
2022-12-23T16:31:25.393Z,41.97
2022-12-23T16:33:55.466Z,43.00
2022-12-23T16:36:33.597Z,49.50
2022-12-23T16:39:12.804Z,51.53
2022-12-23T16:41:40.093Z,47.17
2022-12-23T16:44:07.311Z,49.80
2022-12-23T16:46:38.626Z,47.63
2022-12-23T16:49:07.491Z,50.23
2022-12-23T16:51:36.284Z,52.50
2022-12-23T16:54:05.033Z,49.57
2022-12-23T16:56:35.232Z,50.10
2022-12-23T16:59:03.254Z,50.30
2022-12-23T17:01:34.986Z,48.23
2022-12-23T17:04:02.480Z,51.67
2022-12-23T17:06:29.658Z,49.60
2022-12-23T17:08:57.175Z,44.07
2022-12-23T17:11:32.015Z,43.33
2022-12-23T17:14:04.634Z,51.63
2022-12-23T17:16:34.190Z,49.70
2022-12-23T17:19:01.641Z,43.93
2022-12-23T17:21:31.302Z,42.20
2022-12-23T17:24:11.002Z,42.43
2022-12-23T17:26:39.651Z,43.67
2022-12-23T17:29:06.844Z,50.67
2022-12-23T17:31:34.627Z,43.40
2022-12-23T17:34:02.018Z,47.57
2022-12-23T17:36:29.539Z,40.13
2022-12-23T17:38:56.833Z,82.40
2022-12-23T17:41:27.481Z,79.90
2022-12-23T17:43:56.496Z,97.27
2022-12-23T17:46:24.291Z,52.73
2022-12-23T17:48:52.063Z,47.77
2022-12-23T17:51:22.710Z,47.07
2022-12-23T17:53:57.411Z,49.23
2022-12-23T17:56:28.100Z,44.63
2022-12-23T17:58:56.685Z,51.77
2022-12-23T18:01:25.999Z,51.17
2022-12-23T18:03:54.814Z,47.03
2022-12-23T18:06:23.489Z,56.30
2022-12-23T18:08:50.762Z,51.57
2022-12-23T18:11:21.608Z,50.00
2022-12-23T18:13:50.287Z,41.80
2022-12-23T18:16:18.947Z,51.70
2022-12-23T18:18:47.192Z,47.20
2022-12-23T18:21:21.724Z,51.00
2022-12-23T18:23:49.673Z,44.53
2022-12-23T18:26:16.849Z,56.10
2022-12-23T18:28:44.606Z,48.30
2022-12-23T18:31:15.472Z,45.10
2022-12-23T18:33:44.327Z,53.30
2022-12-23T18:36:21.163Z,45.60
2022-12-23T18:38:48.473Z,45.30
2022-12-23T18:41:15.695Z,34.83
2022-12-23T18:43:43.073Z,39.27
2022-12-23T18:46:10.521Z,46.97
2022-12-23T18:48:38.254Z,41.40
2022-12-23T18:51:07.284Z,45.13
2022-12-23T18:53:34.526Z,65.63
2022-12-23T18:56:01.701Z,67.83
2022-12-23T18:58:28.986Z,48.03
2022-12-23T19:00:56.321Z,47.77
2022-12-23T19:03:26.199Z,46.17
2022-12-23T19:05:54.744Z,44.77
2022-12-23T19:08:27.221Z,50.10
2022-12-23T19:10:56.057Z,48.97
2022-12-23T19:13:23.548Z,51.20
2022-12-23T19:15:51.356Z,49.47
2022-12-23T19:18:20.743Z,45.90
2022-12-23T19:20:48.853Z,43.57
2022-12-23T19:23:16.551Z,48.07
2022-12-23T19:25:52.789Z,49.60
2022-12-23T19:28:24.098Z,40.97
2022-12-23T19:30:51.775Z,43.13
2022-12-23T19:33:19.122Z,43.20
2022-12-23T19:35:46.372Z,49.83
2022-12-23T19:38:13.665Z,43.20
2022-12-23T19:40:41.062Z,40.47
2022-12-23T19:43:10.034Z,42.13
2022-12-23T19:45:37.290Z,41.47
2022-12-23T19:48:05.055Z,42.93
2022-12-23T19:50:32.293Z,40.70
2022-12-23T19:52:59.534Z,41.20
2022-12-23T19:55:26.724Z,33.50
2022-12-23T19:57:53.923Z,38.53
2022-12-23T20:00:22.588Z,33.10
2022-12-23T20:02:55.076Z,37.33
2022-12-23T20:05:25.752Z,33.87
2022-12-23T20:07:52.969Z,34.03
2022-12-23T20:10:20.246Z,38.37
2022-12-23T20:12:47.433Z,40.77
2022-12-23T20:15:14.665Z,37.00
2022-12-23T20:17:43.356Z,39.80
2022-12-23T20:20:11.114Z,39.20
2022-12-23T20:22:38.338Z,36.70
2022-12-23T20:25:06.537Z,35.33
2022-12-23T20:27:33.734Z,35.73
2022-12-23T20:30:00.950Z,39.83
2022-12-23T20:32:28.119Z,55.60
2022-12-23T20:34:56.779Z,50.23
2022-12-23T20:37:23.965Z,133.70
2022-12-23T20:39:51.254Z,38.30
2022-12-23T20:42:18.500Z,33.50
2022-12-23T20:44:45.871Z,32.37
2022-12-23T20:47:13.153Z,32.13
2022-12-23T20:49:40.467Z,31.57
2022-12-23T20:52:09.029Z,32.17
2022-12-23T20:54:36.247Z,29.60
2022-12-23T20:57:03.636Z,29.43
2022-12-23T20:59:30.975Z,27.27
2022-12-23T21:01:58.272Z,28.77
2022-12-23T21:04:25.589Z,26.47
2022-12-23T21:06:52.787Z,27.83
2022-12-23T21:09:21.424Z,32.17
2022-12-23T21:11:48.788Z,28.27
2022-12-23T21:14:16.600Z,27.73
2022-12-23T21:16:44.267Z,25.67
2022-12-23T21:19:15.764Z,31.43
2022-12-23T21:21:43.134Z,27.83
2022-12-23T21:24:11.585Z,27.77
2022-12-23T21:26:40.381Z,26.63
2022-12-23T21:29:09.224Z,59.70
2022-12-23T21:31:39.039Z,54.77
2022-12-23T21:34:07.166Z,42.00
2022-12-23T21:36:37.770Z,25.40
2022-12-23T21:39:05.708Z,27.00
2022-12-23T21:41:36.369Z,26.97
2022-12-23T21:44:05.365Z,25.73
2022-12-23T21:46:32.690Z,28.90
2022-12-23T21:49:00.180Z,22.53
2022-12-23T21:51:36.685Z,27.30
2022-12-23T21:54:07.463Z,20.03
2022-12-23T21:56:35.058Z,20.60
2022-12-23T21:59:05.642Z,22.50
2022-12-23T22:01:35.051Z,19.87
2022-12-23T22:04:02.516Z,22.70
2022-12-23T22:06:31.912Z,21.80
2022-12-23T22:08:59.779Z,22.60
2022-12-23T22:11:28.762Z,23.53
2022-12-23T22:13:56.837Z,25.60
2022-12-23T22:16:26.007Z,20.80
2022-12-23T22:18:55.735Z,22.40
2022-12-23T22:21:25.034Z,23.23
2022-12-23T22:23:54.178Z,22.07
2022-12-23T22:26:25.771Z,19.27
2022-12-23T22:28:54.683Z,23.07
2022-12-23T22:31:27.162Z,20.73
2022-12-23T22:33:55.902Z,26.40
2022-12-23T22:36:23.206Z,25.33
2022-12-23T22:38:52.568Z,25.60
2022-12-23T22:41:20.249Z,27.03
2022-12-23T22:43:47.909Z,22.50
2022-12-23T22:46:15.804Z,20.30
2022-12-23T22:48:43.153Z,22.07
2022-12-23T22:51:14.722Z,25.63
2022-12-23T22:53:42.320Z,445.77
2022-12-23T22:56:12.154Z,54.27
2022-12-23T22:58:39.729Z,22.90
2022-12-23T23:01:16.381Z,23.07
2022-12-23T23:03:43.605Z,29.70
2022-12-23T23:06:12.168Z,23.17
2022-12-23T23:08:42.048Z,27.13
2022-12-23T23:11:10.431Z,23.60
2022-12-23T23:13:37.723Z,24.57
2022-12-23T23:16:05.441Z,22.53
2022-12-23T23:18:32.862Z,22.30
2022-12-23T23:21:00.407Z,26.77
2022-12-23T23:23:29.121Z,26.20
2022-12-23T23:25:56.353Z,22.73
2022-12-23T23:28:23.699Z,23.60
2022-12-23T23:31:09.755Z,22.17
2022-12-23T23:33:38.256Z,27.53
2022-12-23T23:36:06.538Z,22.23
2022-12-23T23:38:35.181Z,23.73
2022-12-23T23:41:02.465Z,21.23
2022-12-23T23:43:29.756Z,29.50
2022-12-23T23:45:57.030Z,24.07
2022-12-23T23:48:24.307Z,23.53
2022-12-23T23:50:51.607Z,22.00
2022-12-23T23:53:18.945Z,25.33
2022-12-23T23:55:47.544Z,23.63
2022-12-23T23:58:14.803Z,29.30
